createdAt,value
2018-09-05T00:04:13.951Z,62.35
2018-09-05T00:09:17.474Z,63.13
2018-09-05T00:14:21.100Z,62.71
2018-09-05T00:19:24.568Z,62.82
2018-09-05T00:24:28.126Z,62.72
2018-09-05T00:29:31.662Z,62.79
2018-09-05T00:34:41.734Z,63.31
2018-09-05T00:39:45.224Z,63.25
2018-09-05T00:44:48.778Z,63.42
2018-09-05T00:49:55.296Z,63.71
2018-09-05T00:54:58.881Z,64.59
2018-09-05T01:00:02.457Z,63.90
2018-09-05T01:05:06.028Z,64.19
2018-09-05T01:10:09.550Z,64.37
2018-09-05T01:15:13.062Z,64.63
2018-09-05T01:20:16.544Z,64.67
2018-09-05T01:25:20.015Z,64.84
2018-09-05T01:30:26.743Z,64.64
2018-09-05T01:35:30.253Z,64.77
2018-09-05T01:40:33.915Z,64.83
2018-09-05T01:45:37.491Z,64.77
2018-09-05T01:50:42.952Z,64.85
2018-09-05T01:55:46.508Z,65.48
2018-09-05T02:00:50.071Z,65.38
2018-09-05T02:05:53.646Z,65.16
2018-09-05T02:10:57.144Z,64.95
2018-09-05T02:16:00.619Z,65.24
2018-09-05T02:21:04.154Z,65.03
2018-09-05T02:26:07.708Z,65.39
2018-09-05T02:31:11.221Z,65.00
2018-09-05T02:36:14.723Z,65.58
2018-09-05T02:41:18.302Z,66.06
2018-09-05T02:46:22.084Z,66.02
2018-09-05T02:51:25.639Z,66.16
2018-09-05T02:56:29.117Z,66.71
2018-09-05T03:01:32.673Z,66.64
2018-09-05T03:06:36.218Z,66.27
2018-09-05T03:11:39.709Z,67.27
2018-09-05T03:16:43.240Z,67.78
2018-09-05T03:21:47.682Z,66.58
2018-09-05T03:26:51.277Z,67.51
2018-09-05T03:31:54.761Z,66.86
2018-09-05T03:36:58.293Z,67.43
2018-09-05T03:42:01.772Z,67.51
2018-09-05T03:47:05.335Z,66.73
2018-09-05T03:52:08.862Z,66.58
2018-09-05T03:57:12.367Z,67.48
2018-09-05T04:02:15.933Z,67.97
2018-09-05T04:07:19.469Z,67.74
2018-09-05T04:12:23.300Z,67.64
2018-09-05T04:17:26.851Z,68.01
2018-09-05T04:22:30.353Z,68.78
2018-09-05T04:27:33.886Z,68.25
2018-09-05T04:32:37.535Z,68.32
2018-09-05T04:37:41.126Z,68.00
2018-09-05T04:42:44.601Z,67.95
2018-09-05T04:47:48.157Z,67.96
2018-09-05T04:52:51.743Z,68.28
2018-09-05T04:57:55.241Z,68.00
2018-09-05T05:02:59.986Z,68.47
2018-09-05T05:08:03.532Z,67.82
2018-09-05T05:13:07.058Z,68.23
2018-09-05T05:18:10.494Z,68.85
2018-09-05T05:23:18.415Z,68.07
2018-09-05T05:28:21.934Z,68.56
2018-09-05T05:33:25.415Z,68.47
2018-09-05T05:38:28.875Z,68.31
2018-09-05T05:43:32.498Z,68.54
2018-09-05T05:48:35.928Z,68.53
2018-09-05T05:53:39.393Z,68.58
2018-09-05T05:58:42.896Z,69.02
2018-09-05T06:03:46.430Z,69.89
2018-09-05T06:08:49.921Z,70.00
2018-09-05T06:13:53.410Z,70.14
2018-09-05T06:18:56.906Z,69.49
2018-09-05T06:24:00.517Z,69.64
2018-09-05T06:29:04.967Z,70.25
2018-09-05T06:34:08.503Z,70.88
2018-09-05T06:39:12.093Z,70.78
2018-09-05T06:44:15.905Z,71.27
2018-09-05T06:49:19.454Z,70.37
2018-09-05T06:54:23.000Z,70.62
2018-09-05T06:59:26.653Z,70.76
2018-09-05T07:04:30.246Z,71.20
2018-09-05T07:09:33.929Z,70.56
2018-09-05T07:14:37.587Z,70.76
2018-09-05T07:19:41.134Z,69.90
2018-09-05T07:24:44.690Z,70.98
2018-09-05T07:29:48.206Z,69.47
2018-09-05T07:34:52.629Z,69.68
2018-09-05T07:39:56.235Z,69.36
2018-09-05T07:44:59.790Z,69.06
2018-09-05T07:50:03.681Z,68.98
2018-09-05T07:55:08.030Z,69.23
2018-09-05T08:00:11.575Z,68.01
2018-09-05T08:05:15.103Z,68.61
2018-09-05T08:10:18.605Z,68.17
2018-09-05T08:15:22.145Z,68.22
2018-09-05T08:20:25.806Z,67.20
2018-09-05T08:25:29.288Z,66.83
2018-09-05T08:30:32.786Z,66.97
2018-09-05T08:35:36.483Z,65.92
2018-09-05T08:40:39.810Z,65.86
2018-09-05T08:45:43.678Z,64.13
2018-09-05T08:50:47.806Z,64.22
2018-09-05T08:55:51.391Z,62.89
2018-09-05T09:00:54.911Z,61.71
2018-09-05T09:05:58.397Z,60.08
2018-09-05T09:11:02.021Z,59.92
2018-09-05T09:16:05.762Z,60.57
2018-09-05T09:21:09.271Z,59.31
2018-09-05T09:26:12.850Z,58.29
2018-09-05T09:31:22.942Z,56.85
2018-09-05T09:36:26.433Z,57.03
2018-09-05T09:41:29.947Z,55.05
2018-09-05T09:46:33.948Z,53.94
2018-09-05T09:51:37.634Z,53.26
2018-09-05T09:56:41.180Z,50.92
2018-09-05T10:01:49.989Z,49.67
2018-09-05T10:06:58.749Z,48.96
2018-09-05T10:12:07.398Z,48.92
2018-09-05T10:17:16.135Z,48.41
2018-09-05T10:22:19.608Z,48.46
2018-09-05T10:27:23.544Z,47.91
2018-09-05T10:32:27.264Z,48.07
2018-09-05T10:37:30.751Z,47.28
2018-09-05T10:42:34.282Z,48.87
2018-09-05T10:47:37.738Z,47.96
2018-09-05T10:52:41.229Z,47.12
2018-09-05T10:57:44.749Z,47.34
2018-09-05T11:02:48.284Z,45.32
2018-09-05T11:07:51.836Z,45.27
2018-09-05T11:12:55.351Z,46.16
2018-09-05T11:17:58.858Z,45.61
2018-09-05T11:23:02.402Z,44.81
2018-09-05T11:28:05.950Z,44.65
2018-09-05T11:33:09.464Z,45.33
2018-09-05T11:38:12.985Z,45.98
2018-09-05T11:43:16.447Z,40.81
2018-09-05T11:48:19.941Z,23.76
2018-09-05T11:53:24.205Z,21.01
2018-09-05T11:58:27.698Z,18.52
2018-09-05T12:03:31.333Z,22.80
2018-09-05T12:08:34.837Z,20.72
2018-09-05T12:13:38.339Z,18.97
2018-09-05T12:18:41.911Z,17.99
2018-09-05T12:23:45.410Z,17.36
2018-09-05T12:28:48.945Z,15.17
2018-09-05T12:33:52.448Z,16.18
2018-09-05T12:38:56.191Z,15.78
2018-09-05T12:43:59.694Z,18.11
2018-09-05T12:49:03.185Z,21.02
2018-09-05T12:54:07.318Z,27.47
2018-09-05T12:59:10.874Z,31.16
2018-09-05T13:04:14.361Z,32.56
2018-09-05T13:09:17.888Z,32.92
2018-09-05T13:14:21.423Z,33.08
2018-09-05T13:19:24.901Z,25.00
2018-09-05T13:24:28.382Z,24.57
2018-09-05T13:29:32.437Z,28.26
2018-09-05T13:34:35.905Z,30.39
2018-09-05T13:39:41.383Z,31.01
2018-09-05T13:44:44.945Z,26.36
2018-09-05T13:49:48.447Z,29.17
2018-09-05T13:54:52.008Z,31.63
2018-09-05T13:59:55.564Z,32.44
2018-09-05T14:04:59.060Z,32.91
2018-09-05T14:10:03.575Z,33.61
2018-09-05T14:15:07.778Z,34.53
2018-09-05T14:20:11.305Z,33.05
2018-09-05T14:25:14.834Z,34.54
2018-09-05T14:30:18.328Z,34.18
2018-09-05T14:35:21.817Z,32.63
2018-09-05T14:40:25.643Z,33.83
2018-09-05T14:45:29.176Z,35.16
2018-09-05T14:50:32.666Z,34.58
2018-09-05T14:55:36.214Z,35.04
2018-09-05T15:00:40.229Z,34.74
2018-09-05T15:05:43.714Z,34.75
2018-09-05T15:10:47.259Z,35.70
2018-09-05T15:15:50.750Z,36.28
2018-09-05T15:20:54.392Z,36.27
2018-09-05T15:25:58.085Z,36.21
2018-09-05T15:31:01.765Z,35.47
2018-09-05T15:36:05.364Z,35.91
2018-09-05T15:41:08.894Z,36.46
2018-09-05T15:46:12.372Z,35.58
2018-09-05T15:51:16.047Z,35.10
2018-09-05T15:56:19.678Z,35.50
2018-09-05T16:01:23.440Z,35.10
2018-09-05T16:06:26.984Z,35.25
2018-09-05T16:11:30.555Z,35.95
2018-09-05T16:16:34.052Z,34.37
2018-09-05T16:21:37.631Z,35.45
2018-09-05T16:26:41.324Z,35.25
2018-09-05T16:31:44.915Z,34.83
2018-09-05T16:36:48.481Z,35.49
2018-09-05T16:41:52.030Z,35.91
2018-09-05T16:46:55.598Z,34.68
2018-09-05T16:51:59.062Z,34.99
2018-09-05T16:57:03.654Z,35.76
2018-09-05T17:02:07.531Z,36.61
2018-09-05T17:07:11.069Z,37.23
2018-09-05T17:12:14.703Z,36.98
2018-09-05T17:17:18.345Z,35.95
2018-09-05T17:22:21.982Z,37.76
2018-09-05T17:27:25.489Z,41.05
2018-09-05T17:32:29.355Z,43.00
2018-09-05T17:37:32.854Z,43.46
2018-09-05T17:42:36.477Z,44.64
2018-09-05T17:47:40.058Z,43.95
2018-09-05T17:52:43.589Z,45.19
2018-09-05T17:57:47.117Z,46.73
2018-09-05T18:02:50.797Z,46.53
2018-09-05T18:07:54.386Z,47.69
2018-09-05T18:12:57.898Z,48.23
2018-09-05T18:18:01.454Z,49.24
2018-09-05T18:23:05.212Z,49.81
2018-09-05T18:28:08.774Z,50.88
2018-09-05T18:33:12.340Z,51.14
2018-09-05T18:38:22.583Z,51.43
2018-09-05T18:43:26.145Z,52.32
2018-09-05T18:48:29.655Z,51.97
2018-09-05T18:53:33.267Z,52.07
2018-09-05T18:58:36.842Z,53.05
2018-09-05T19:03:40.323Z,54.37
2018-09-05T19:08:43.912Z,54.96
2018-09-05T19:13:47.444Z,54.43
2018-09-05T19:18:51.008Z,55.30
2018-09-05T19:23:54.590Z,55.52
2018-09-05T19:28:58.163Z,55.99
2018-09-05T19:34:01.717Z,57.01
2018-09-05T19:39:07.725Z,57.12
2018-09-05T19:44:12.318Z,57.51
2018-09-05T19:49:16.039Z,57.13
2018-09-05T19:54:23.533Z,57.09
2018-09-05T19:59:27.603Z,57.67
2018-09-05T20:04:31.250Z,57.08
2018-09-05T20:09:34.752Z,57.76
2018-09-05T20:14:38.347Z,58.50
2018-09-05T20:19:41.852Z,58.37
2018-09-05T20:24:45.455Z,59.38
2018-09-05T20:29:49.358Z,59.95
2018-09-05T20:34:52.862Z,60.27
2018-09-05T20:39:56.415Z,59.23
2018-09-05T20:45:00.009Z,59.05
2018-09-05T20:50:03.833Z,59.28
2018-09-05T20:55:07.792Z,59.06
2018-09-05T21:00:11.258Z,59.26
2018-09-05T21:05:14.800Z,58.82
2018-09-05T21:10:18.333Z,59.25
2018-09-05T21:15:21.917Z,59.43
2018-09-05T21:20:25.470Z,59.77
2018-09-05T21:25:29.052Z,60.27
2018-09-05T21:30:32.554Z,60.37
2018-09-05T21:35:36.359Z,60.61
2018-09-05T21:40:40.029Z,60.47
2018-09-05T21:45:43.538Z,60.30
2018-09-05T21:50:47.058Z,60.44
2018-09-05T21:55:50.558Z,60.89
2018-09-05T22:00:54.061Z,60.90
2018-09-05T22:05:57.915Z,60.55
2018-09-05T22:11:35.007Z,61.06
2018-09-05T22:16:38.521Z,61.50
2018-09-05T22:21:42.022Z,61.24
2018-09-05T22:26:45.518Z,61.86
2018-09-05T22:31:49.001Z,62.46
2018-09-05T22:36:52.493Z,62.24
2018-09-05T22:41:56.066Z,61.88
2018-09-05T22:47:10.721Z,61.77
2018-09-05T22:55:04.436Z,62.41
2018-09-05T23:01:20.555Z,62.93
2018-09-05T23:08:42.976Z,62.08
2018-09-05T23:14:02.436Z,62.65
2018-09-05T23:19:45.958Z,63.66
2018-09-05T23:24:49.451Z,63.57
2018-09-05T23:29:52.984Z,63.48
2018-09-05T23:34:57.382Z,63.08
2018-09-05T23:40:00.951Z,63.76
2018-09-05T23:45:04.788Z,63.62
2018-09-05T23:50:08.395Z,64.09
2018-09-05T23:55:12.029Z,64.00
